Startpagina
METAR-TAF:

METAR-TAF

Vliegvelden :

Caracas, Venezuela

Aeropuerto Internacional de Maiquetía Simón Bolívar

breedte: 10-36N, lengte: 066-59W, hoogte: 43 m

Actueel weer

Dit bericht is 53 minuten geleden gemaakt, om 17:00 UTC
Temperatuur 31°C
Vochtigheid 75%
Druk 1009 hPa
Zicht 10 km of meer
Verspreide wolken op 1600 ft

METAR: SVMI 181700Z /////KT 9999 SCT016 31/26 Q1009

Tijdstip: 13:53 (17:53 UTC)

Verwachting

Dit bericht is 1 uur en het 53 minuten geleden gemaakt, om 16:00 UTC
Verwachting geldig van 18 om 18 UTC tot 19 om 18 UTC
Wind 7 kt uit het noordoosten
Zicht 10 km of meer
Verspreide wolken op 1600 ft
Tijdelijke
van 18 om 20 UTC tot 19 om 00 UTC
Wind 12 kt uit het noordoosten
Verspreide wolken op 10000 ft
in de omgeving, motregen
Van 19 om 0100 UTC
Wind kt uit het noorden
Zicht 10 km of meer
Weinig wolken op 1600 ft

TAF: SVMI 181600Z 1818/1918 05007KT 9999 SCT016 TX34/18Z TN25/09Z TEMPO 1820/1900 05012KT VCDZ SCT0160 SCT100 FM190100 00000KT 9999 FEW016

Waarnemingen en weersverwachtingen van meer dan 4000 vliegvelden (METAR en TAF).

De beschikbare stations zijn de gele en rode punten op de kaart.

Ga met uw muis naar het station om de naam te zien.

Klik dan om waarnemingen en weersverwachtingen te zien.

kaart wijzigen: klik op de groene knoppen met een zwart kruis om in te zoomen, op de groene knop met een streepje om uit te zoomen of op de groene pijlen voor aangrenzende kaarten.


METAR-TAF: